sensor_id;sensor_type;location;lat;lon;timestamp;pressure;altitude;pressure_sealevel;temperature;humidity
29215;BME280;16252;49.816;7.964;2023-12-20T00:00:58;100031.91;;;7.14;71.00
29215;BME280;16252;49.816;7.964;2023-12-20T00:03:23;99975.16;;;6.85;70.60
29215;BME280;16252;49.816;7.964;2023-12-20T00:05:49;100013.19;;;7.02;70.79
29215;BME280;16252;49.816;7.964;2023-12-20T00:08:15;99935.25;;;6.57;70.82
29215;BME280;16252;49.816;7.964;2023-12-20T00:10:40;99979.16;;;6.92;70.51
29215;BME280;16252;49.816;7.964;2023-12-20T00:13:06;99988.94;;;6.92;70.97
29215;BME280;16252;49.816;7.964;2023-12-20T00:15:33;99956.06;;;6.79;70.75
29215;BME280;16252;49.816;7.964;2023-12-20T00:17:58;99970.88;;;6.83;70.66
29215;BME280;16252;49.816;7.964;2023-12-20T00:20:23;100001.50;;;7.04;70.71
29215;BME280;16252;49.816;7.964;2023-12-20T00:22:49;99974.09;;;6.88;70.81
29215;BME280;16252;49.816;7.964;2023-12-20T00:25:14;99943.97;;;6.73;70.78
29215;BME280;16252;49.816;7.964;2023-12-20T00:27:39;99953.09;;;6.83;70.94
29215;BME280;16252;49.816;7.964;2023-12-20T00:30:05;99978.75;;;6.99;71.17
29215;BME280;16252;49.816;7.964;2023-12-20T00:32:31;99926.41;;;6.70;71.10
29215;BME280;16252;49.816;7.964;2023-12-20T00:34:56;99965.75;;;6.94;71.25
29215;BME280;16252;49.816;7.964;2023-12-20T00:37:21;100013.56;;;7.24;71.24
29215;BME280;16252;49.816;7.964;2023-12-20T00:39:46;99955.97;;;6.94;71.38
29215;BME280;16252;49.816;7.964;2023-12-20T00:42:12;99969.66;;;7.03;71.28
29215;BME280;16252;49.816;7.964;2023-12-20T00:44:37;99943.16;;;6.87;71.19
29215;BME280;16252;49.816;7.964;2023-12-20T00:47:03;99908.84;;;6.68;71.23
29215;BME280;16252;49.816;7.964;2023-12-20T00:49:28;99984.16;;;7.11;71.29
29215;BME280;16252;49.816;7.964;2023-12-20T00:51:53;99953.19;;;6.96;71.46
29215;BME280;16252;49.816;7.964;2023-12-20T00:54:19;99955.69;;;6.99;71.51
29215;BME280;16252;49.816;7.964;2023-12-20T00:56:44;99962.44;;;7.05;71.42
29215;BME280;16252;49.816;7.964;2023-12-20T00:59:09;99924.72;;;6.84;71.33
29215;BME280;16252;49.816;7.964;2023-12-20T01:01:34;99982.75;;;7.20;71.40
29215;BME280;16252;49.816;7.964;2023-12-20T01:04:00;99971.75;;;7.12;71.41
29215;BME280;16252;49.816;7.964;2023-12-20T01:06:25;99926.16;;;6.89;71.50
29215;BME280;16252;49.816;7.964;2023-12-20T01:08:50;99959.00;;;7.03;71.14
29215;BME280;16252;49.816;7.964;2023-12-20T01:11:16;99928.81;;;6.89;71.20
29215;BME280;16252;49.816;7.964;2023-12-20T01:13:41;99887.19;;;6.60;71.35
29215;BME280;16252;49.816;7.964;2023-12-20T01:16:10;99997.97;;;7.32;71.70
29215;BME280;16252;49.816;7.964;2023-12-20T01:18:35;99978.00;;;7.11;71.51
29215;BME280;16252;49.816;7.964;2023-12-20T01:21:04;100012.97;;;7.33;71.88
29215;BME280;16252;49.816;7.964;2023-12-20T01:23:29;99986.53;;;7.16;71.44
29215;BME280;16252;49.816;7.964;2023-12-20T01:25:55;99994.81;;;7.26;71.60
29215;BME280;16252;49.816;7.964;2023-12-20T01:28:20;99951.09;;;7.01;71.36
29215;BME280;16252;49.816;7.964;2023-12-20T01:30:45;99950.06;;;7.04;71.44
29215;BME280;16252;49.816;7.964;2023-12-20T01:33:11;99967.91;;;7.16;71.30
29215;BME280;16252;49.816;7.964;2023-12-20T01:35:36;99917.88;;;6.80;71.40
29215;BME280;16252;49.816;7.964;2023-12-20T01:38:02;99964.13;;;7.06;71.64
29215;BME280;16252;49.816;7.964;2023-12-20T01:40:27;99976.31;;;7.10;71.71
29215;BME280;16252;49.816;7.964;2023-12-20T01:43:07;99964.81;;;7.09;71.91
29215;BME280;16252;49.816;7.964;2023-12-20T01:45:33;99981.72;;;7.08;71.67
29215;BME280;16252;49.816;7.964;2023-12-20T01:47:59;99988.09;;;7.20;71.71
29215;BME280;16252;49.816;7.964;2023-12-20T01:50:25;99946.56;;;6.89;71.56
29215;BME280;16252;49.816;7.964;2023-12-20T01:52:51;99987.88;;;7.09;71.74
29215;BME280;16252;49.816;7.964;2023-12-20T01:55:20;99979.03;;;7.08;71.81
29215;BME280;16252;49.816;7.964;2023-12-20T01:57:46;100008.50;;;7.34;71.49
29215;BME280;16252;49.816;7.964;2023-12-20T02:00:13;100005.84;;;7.34;71.75
29215;BME280;16252;49.816;7.964;2023-12-20T02:02:40;100016.47;;;7.34;71.63
29215;BME280;16252;49.816;7.964;2023-12-20T02:05:06;99945.97;;;6.98;71.65
29215;BME280;16252;49.816;7.964;2023-12-20T02:07:32;99938.28;;;6.93;71.62
29215;BME280;16252;49.816;7.964;2023-12-20T02:09:58;99976.88;;;7.15;71.80
29215;BME280;16252;49.816;7.964;2023-12-20T02:12:23;99980.94;;;7.21;71.80
29215;BME280;16252;49.816;7.964;2023-12-20T02:14:49;99973.81;;;7.21;71.62
29215;BME280;16252;49.816;7.964;2023-12-20T02:17:15;99884.75;;;6.71;71.64
29215;BME280;16252;49.816;7.964;2023-12-20T02:19:40;99938.50;;;7.05;71.64
29215;BME280;16252;49.816;7.964;2023-12-20T02:24:32;99937.31;;;7.09;71.83
29215;BME280;16252;49.816;7.964;2023-12-20T02:26:57;99921.97;;;7.00;71.79
29215;BME280;16252;49.816;7.964;2023-12-20T02:29:23;99938.00;;;7.12;71.94
29215;BME280;16252;49.816;7.964;2023-12-20T02:31:48;99941.22;;;7.18;71.89
29215;BME280;16252;49.816;7.964;2023-12-20T02:34:14;99937.16;;;7.12;71.76
29215;BME280;16252;49.816;7.964;2023-12-20T02:36:39;99967.84;;;7.32;71.72
29215;BME280;16252;49.816;7.964;2023-12-20T02:39:04;99921.34;;;7.09;71.74
29215;BME280;16252;49.816;7.964;2023-12-20T02:41:30;99949.69;;;7.24;71.70
29215;BME280;16252;49.816;7.964;2023-12-20T02:43:55;99949.78;;;7.23;71.89
29215;BME280;16252;49.816;7.964;2023-12-20T02:46:20;99988.09;;;7.34;71.97
29215;BME280;16252;49.816;7.964;2023-12-20T02:48:45;99959.16;;;7.28;72.02
29215;BME280;16252;49.816;7.964;2023-12-20T02:51:12;99975.34;;;7.40;72.12
29215;BME280;16252;49.816;7.964;2023-12-20T02:53:37;99971.16;;;7.35;72.07
29215;BME280;16252;49.816;7.964;2023-12-20T02:56:03;99955.19;;;7.35;71.86
29215;BME280;16252;49.816;7.964;2023-12-20T02:58:28;99929.81;;;7.30;71.95
29215;BME280;16252;49.816;7.964;2023-12-20T03:00:53;99942.72;;;7.36;71.94
29215;BME280;16252;49.816;7.964;2023-12-20T03:03:19;99932.84;;;7.24;71.88
29215;BME280;16252;49.816;7.964;2023-12-20T03:05:45;99944.53;;;7.35;71.98
29215;BME280;16252;49.816;7.964;2023-12-20T03:08:11;99863.25;;;6.88;71.78
29215;BME280;16252;49.816;7.964;2023-12-20T03:10:36;99945.78;;;7.30;71.47
29215;BME280;16252;49.816;7.964;2023-12-20T03:13:01;99921.06;;;7.13;71.68
29215;BME280;16252;49.816;7.964;2023-12-20T03:15:27;99945.66;;;7.31;71.70
29215;BME280;16252;49.816;7.964;2023-12-20T03:17:52;99947.19;;;7.35;72.01
29215;BME280;16252;49.816;7.964;2023-12-20T03:20:17;99903.06;;;7.04;71.70
29215;BME280;16252;49.816;7.964;2023-12-20T03:22:42;99911.19;;;7.15;71.82
29215;BME280;16252;49.816;7.964;2023-12-20T03:25:08;99910.34;;;7.15;71.74
29215;BME280;16252;49.816;7.964;2023-12-20T03:27:33;99924.13;;;7.22;71.64
29215;BME280;16252;49.816;7.964;2023-12-20T03:29:58;99980.22;;;7.60;71.58
29215;BME280;16252;49.816;7.964;2023-12-20T03:32:23;99999.88;;;7.72;71.64
29215;BME280;16252;49.816;7.964;2023-12-20T03:34:49;99920.78;;;7.18;71.66
29215;BME280;16252;49.816;7.964;2023-12-20T03:37:14;99960.78;;;7.45;71.82
29215;BME280;16252;49.816;7.964;2023-12-20T03:39:39;99934.47;;;7.26;71.89
29215;BME280;16252;49.816;7.964;2023-12-20T03:42:05;99887.38;;;7.00;71.81
29215;BME280;16252;49.816;7.964;2023-12-20T03:44:30;99931.78;;;7.26;71.85
29215;BME280;16252;49.816;7.964;2023-12-20T03:46:56;100026.22;;;7.76;71.70
29215;BME280;16252;49.816;7.964;2023-12-20T03:49:21;100058.94;;;7.93;71.54
29215;BME280;16252;49.816;7.964;2023-12-20T03:51:47;99937.53;;;7.20;71.44
29215;BME280;16252;49.816;7.964;2023-12-20T03:54:12;100023.75;;;7.73;71.57
29215;BME280;16252;49.816;7.964;2023-12-20T03:56:37;100008.75;;;7.58;71.67
29215;BME280;16252;49.816;7.964;2023-12-20T03:59:03;99977.78;;;7.43;71.63
29215;BME280;16252;49.816;7.964;2023-12-20T04:01:28;99964.97;;;7.35;71.89
29215;BME280;16252;49.816;7.964;2023-12-20T04:03:54;99987.84;;;7.52;71.95
29215;BME280;16252;49.816;7.964;2023-12-20T04:06:19;99958.88;;;7.33;71.76
29215;BME280;16252;49.816;7.964;2023-12-20T04:08:44;99939.41;;;7.18;71.79
29215;BME280;16252;49.816;7.964;2023-12-20T04:11:10;99969.63;;;7.31;71.75
29215;BME280;16252;49.816;7.964;2023-12-20T04:13:35;99965.06;;;7.33;71.88
29215;BME280;16252;49.816;7.964;2023-12-20T04:16:00;99971.34;;;7.32;71.72
29215;BME280;16252;49.816;7.964;2023-12-20T04:18:26;99960.34;;;7.24;71.78
29215;BME280;16252;49.816;7.964;2023-12-20T04:20:51;100006.03;;;7.45;71.99
29215;BME280;16252;49.816;7.964;2023-12-20T04:23:16;100028.16;;;7.60;72.10
29215;BME280;16252;49.816;7.964;2023-12-20T04:25:42;100044.50;;;7.68;72.10
29215;BME280;16252;49.816;7.964;2023-12-20T04:28:07;100026.72;;;7.54;72.18
29215;BME280;16252;49.816;7.964;2023-12-20T04:30:33;100056.47;;;7.75;72.26
29215;BME280;16252;49.816;7.964;2023-12-20T04:32:58;100041.56;;;7.73;72.22
29215;BME280;16252;49.816;7.964;2023-12-20T04:35:23;100057.03;;;7.80;72.09
29215;BME280;16252;49.816;7.964;2023-12-20T04:37:49;100055.31;;;7.79;72.12
29215;BME280;16252;49.816;7.964;2023-12-20T04:40:14;100053.63;;;7.78;71.99
29215;BME280;16252;49.816;7.964;2023-12-20T04:42:40;100069.41;;;7.81;71.96
29215;BME280;16252;49.816;7.964;2023-12-20T04:45:05;100006.78;;;7.47;71.95
29215;BME280;16252;49.816;7.964;2023-12-20T04:47:31;100001.47;;;7.47;71.99
29215;BME280;16252;49.816;7.964;2023-12-20T04:49:56;100100.94;;;8.02;71.74
29215;BME280;16252;49.816;7.964;2023-12-20T04:52:21;100095.63;;;8.02;71.81
29215;BME280;16252;49.816;7.964;2023-12-20T04:54:47;100067.50;;;7.84;71.53
29215;BME280;16252;49.816;7.964;2023-12-20T04:57:12;100079.75;;;7.86;71.43
29215;BME280;16252;49.816;7.964;2023-12-20T04:59:37;100107.72;;;7.93;71.43
29215;BME280;16252;49.816;7.964;2023-12-20T05:02:02;100123.22;;;8.01;71.44
29215;BME280;16252;49.816;7.964;2023-12-20T05:04:28;100075.31;;;7.72;71.20
29215;BME280;16252;49.816;7.964;2023-12-20T05:06:53;100088.81;;;7.84;70.89
29215;BME280;16252;49.816;7.964;2023-12-20T05:09:18;100098.22;;;7.89;70.65
29215;BME280;16252;49.816;7.964;2023-12-20T05:11:44;100104.59;;;7.87;70.33
29215;BME280;16252;49.816;7.964;2023-12-20T05:14:09;100122.75;;;7.94;70.03
29215;BME280;16252;49.816;7.964;2023-12-20T05:16:34;100101.66;;;7.77;69.86
29215;BME280;16252;49.816;7.964;2023-12-20T05:18:59;100078.06;;;7.56;69.76
29215;BME280;16252;49.816;7.964;2023-12-20T05:21:27;100103.94;;;7.69;69.58
29215;BME280;16252;49.816;7.964;2023-12-20T05:23:52;100070.13;;;7.42;69.56
29215;BME280;16252;49.816;7.964;2023-12-20T05:26:17;100106.59;;;7.54;69.43
29215;BME280;16252;49.816;7.964;2023-12-20T05:28:43;100135.81;;;7.70;69.50
29215;BME280;16252;49.816;7.964;2023-12-20T05:31:08;100112.50;;;7.59;69.81
29215;BME280;16252;49.816;7.964;2023-12-20T05:33:34;100114.69;;;7.53;69.48
29215;BME280;16252;49.816;7.964;2023-12-20T05:35:59;100104.34;;;7.48;69.53
29215;BME280;16252;49.816;7.964;2023-12-20T05:38:25;100096.44;;;7.47;69.79
29215;BME280;16252;49.816;7.964;2023-12-20T05:40:50;100085.59;;;7.35;69.63
29215;BME280;16252;49.816;7.964;2023-12-20T05:43:15;100090.66;;;7.40;69.69
29215;BME280;16252;49.816;7.964;2023-12-20T05:45:40;100106.44;;;7.43;69.66
29215;BME280;16252;49.816;7.964;2023-12-20T05:48:06;100113.84;;;7.38;69.76
29215;BME280;16252;49.816;7.964;2023-12-20T05:50:31;100102.88;;;7.28;69.89
29215;BME280;16252;49.816;7.964;2023-12-20T05:52:56;100096.22;;;7.21;69.77
29215;BME280;16252;49.816;7.964;2023-12-20T05:55:22;100102.44;;;7.22;69.64
29215;BME280;16252;49.816;7.964;2023-12-20T05:57:47;100088.91;;;7.10;69.51
29215;BME280;16252;49.816;7.964;2023-12-20T06:00:13;100106.28;;;7.16;69.55
29215;BME280;16252;49.816;7.964;2023-12-20T06:02:39;100091.25;;;7.01;69.43
29215;BME280;16252;49.816;7.964;2023-12-20T06:05:05;100106.75;;;7.08;69.49
29215;BME280;16252;49.816;7.964;2023-12-20T06:07:30;100094.38;;;6.93;69.35
29215;BME280;16252;49.816;7.964;2023-12-20T06:09:58;100118.63;;;7.03;69.47
29215;BME280;16252;49.816;7.964;2023-12-20T06:12:24;100140.69;;;7.05;69.38
29215;BME280;16252;49.816;7.964;2023-12-20T06:14:51;100116.13;;;6.85;69.33
29215;BME280;16252;49.816;7.964;2023-12-20T06:17:16;100114.00;;;6.76;69.54
29215;BME280;16252;49.816;7.964;2023-12-20T06:19:42;100110.25;;;6.64;69.12
29215;BME280;16252;49.816;7.964;2023-12-20T06:22:10;100127.31;;;6.76;69.24
29215;BME280;16252;49.816;7.964;2023-12-20T06:24:36;100179.41;;;6.94;69.41
29215;BME280;16252;49.816;7.964;2023-12-20T06:27:01;100146.06;;;6.73;69.33
29215;BME280;16252;49.816;7.964;2023-12-20T06:29:29;100192.00;;;7.07;69.44
29215;BME280;16252;49.816;7.964;2023-12-20T06:31:58;100064.72;;;6.24;69.34
29215;BME280;16252;49.816;7.964;2023-12-20T06:34:24;100074.13;;;6.30;69.01
29215;BME280;16252;49.816;7.964;2023-12-20T06:36:52;100103.25;;;6.47;69.35
29215;BME280;16252;49.816;7.964;2023-12-20T06:39:17;100063.09;;;6.22;69.43
29215;BME280;16252;49.816;7.964;2023-12-20T06:41:42;100065.41;;;6.12;69.29
29215;BME280;16252;49.816;7.964;2023-12-20T06:44:08;100169.94;;;6.75;69.21
29215;BME280;16252;49.816;7.964;2023-12-20T06:46:33;100141.91;;;6.53;69.21
29215;BME280;16252;49.816;7.964;2023-12-20T06:49:16;100143.22;;;6.46;69.39
29215;BME280;16252;49.816;7.964;2023-12-20T06:51:44;100172.97;;;6.68;69.36
29215;BME280;16252;49.816;7.964;2023-12-20T06:54:09;100097.63;;;6.22;69.29
29215;BME280;16252;49.816;7.964;2023-12-20T06:56:34;100132.94;;;6.40;69.41
29215;BME280;16252;49.816;7.964;2023-12-20T06:59:00;100143.97;;;6.48;69.15
29215;BME280;16252;49.816;7.964;2023-12-20T07:01:25;100132.31;;;6.35;69.56
29215;BME280;16252;49.816;7.964;2023-12-20T07:03:50;100168.34;;;6.56;69.45
29215;BME280;16252;49.816;7.964;2023-12-20T07:06:16;100169.97;;;6.59;69.13
29215;BME280;16252;49.816;7.964;2023-12-20T07:08:42;100160.81;;;6.48;69.12
29215;BME280;16252;49.816;7.964;2023-12-20T07:11:07;100112.13;;;6.16;69.12
29215;BME280;16252;49.816;7.964;2023-12-20T07:13:32;100141.50;;;6.29;69.31
29215;BME280;16252;49.816;7.964;2023-12-20T07:15:58;100170.47;;;6.49;69.40
29215;BME280;16252;49.816;7.964;2023-12-20T07:18:23;100146.41;;;6.37;69.38
29215;BME280;16252;49.816;7.964;2023-12-20T07:20:48;100165.53;;;6.43;69.56
29215;BME280;16252;49.816;7.964;2023-12-20T07:23:14;100149.06;;;6.37;69.42
29215;BME280;16252;49.816;7.964;2023-12-20T07:25:39;100176.22;;;6.58;69.60
29215;BME280;16252;49.816;7.964;2023-12-20T07:28:05;100142.63;;;6.41;69.32
29215;BME280;16252;49.816;7.964;2023-12-20T07:30:30;100168.66;;;6.50;69.40
29215;BME280;16252;49.816;7.964;2023-12-20T07:32:55;100146.66;;;6.32;69.12
29215;BME280;16252;49.816;7.964;2023-12-20T07:35:23;100228.06;;;6.81;69.09
29215;BME280;16252;49.816;7.964;2023-12-20T07:37:48;100165.66;;;6.40;69.11
29215;BME280;16252;49.816;7.964;2023-12-20T07:40:13;100169.09;;;6.42;69.13
29215;BME280;16252;49.816;7.964;2023-12-20T07:42:39;100165.41;;;6.45;69.16
29215;BME280;16252;49.816;7.964;2023-12-20T07:45:04;100169.03;;;6.44;69.11
29215;BME280;16252;49.816;7.964;2023-12-20T07:47:30;100157.97;;;6.36;69.11
29215;BME280;16252;49.816;7.964;2023-12-20T07:49:55;100171.41;;;6.33;69.19
29215;BME280;16252;49.816;7.964;2023-12-20T07:52:20;100198.88;;;6.49;69.30
29215;BME280;16252;49.816;7.964;2023-12-20T07:54:47;100224.41;;;6.67;69.27
29215;BME280;16252;49.816;7.964;2023-12-20T07:57:13;100181.09;;;6.49;69.32
29215;BME280;16252;49.816;7.964;2023-12-20T07:59:38;100169.88;;;6.44;69.43
29215;BME280;16252;49.816;7.964;2023-12-20T08:02:03;100165.84;;;6.37;69.45
29215;BME280;16252;49.816;7.964;2023-12-20T08:04:29;100195.41;;;6.63;69.46
29215;BME280;16252;49.816;7.964;2023-12-20T08:06:54;100181.63;;;6.56;69.60
29215;BME280;16252;49.816;7.964;2023-12-20T08:09:19;100147.00;;;6.42;69.68
29215;BME280;16252;49.816;7.964;2023-12-20T08:11:46;100165.69;;;6.56;69.46
29215;BME280;16252;49.816;7.964;2023-12-20T08:14:11;100207.38;;;6.86;69.56
29215;BME280;16252;49.816;7.964;2023-12-20T08:16:36;100193.44;;;6.82;69.39
29215;BME280;16252;49.816;7.964;2023-12-20T08:19:02;100192.47;;;6.83;69.57
29215;BME280;16252;49.816;7.964;2023-12-20T08:21:27;100173.38;;;6.77;69.18
29215;BME280;16252;49.816;7.964;2023-12-20T08:23:52;100216.22;;;7.02;69.12
29215;BME280;16252;49.816;7.964;2023-12-20T08:26:21;100198.97;;;6.93;69.25
29215;BME280;16252;49.816;7.964;2023-12-20T08:28:47;100246.72;;;7.27;69.34
29215;BME280;16252;49.816;7.964;2023-12-20T08:31:14;100254.41;;;7.31;69.52
29215;BME280;16252;49.816;7.964;2023-12-20T08:33:40;100255.88;;;7.37;69.45
29215;BME280;16252;49.816;7.964;2023-12-20T08:36:06;100222.53;;;7.15;69.50
29215;BME280;16252;49.816;7.964;2023-12-20T08:38:31;100189.25;;;7.08;69.42
29215;BME280;16252;49.816;7.964;2023-12-20T08:40:56;100200.78;;;7.23;69.50
29215;BME280;16252;49.816;7.964;2023-12-20T08:43:22;100211.38;;;7.39;69.24
29215;BME280;16252;49.816;7.964;2023-12-20T08:45:47;100198.34;;;7.34;69.44
29215;BME280;16252;49.816;7.964;2023-12-20T08:48:12;100190.53;;;7.31;69.01
29215;BME280;16252;49.816;7.964;2023-12-20T08:50:37;100211.69;;;7.49;69.16
29215;BME280;16252;49.816;7.964;2023-12-20T08:53:03;100220.25;;;7.54;68.94
29215;BME280;16252;49.816;7.964;2023-12-20T08:55:29;100203.09;;;7.44;69.16
29215;BME280;16252;49.816;7.964;2023-12-20T08:57:56;100222.56;;;7.60;69.02
29215;BME280;16252;49.816;7.964;2023-12-20T09:00:21;100262.34;;;7.92;69.23
29215;BME280;16252;49.816;7.964;2023-12-20T09:02:49;100204.19;;;7.55;69.10
29215;BME280;16252;49.816;7.964;2023-12-20T09:05:15;100267.47;;;7.95;69.00
29215;BME280;16252;49.816;7.964;2023-12-20T09:07:40;100201.13;;;7.62;68.95
29215;BME280;16252;49.816;7.964;2023-12-20T09:10:06;100236.38;;;7.81;69.04
29215;BME280;16252;49.816;7.964;2023-12-20T09:12:31;100222.56;;;7.74;69.15
29215;BME280;16252;49.816;7.964;2023-12-20T09:14:56;100242.34;;;7.85;69.13
29215;BME280;16252;49.816;7.964;2023-12-20T09:17:22;100236.44;;;7.79;69.12
29215;BME280;16252;49.816;7.964;2023-12-20T09:19:48;100278.34;;;8.06;69.18
29215;BME280;16252;49.816;7.964;2023-12-20T09:22:13;100148.25;;;7.27;68.93
29215;BME280;16252;49.816;7.964;2023-12-20T09:24:39;100209.63;;;7.68;68.83
29215;BME280;16252;49.816;7.964;2023-12-20T09:27:05;100215.53;;;7.73;68.79
29215;BME280;16252;49.816;7.964;2023-12-20T09:29:31;100281.59;;;8.11;68.69
29215;BME280;16252;49.816;7.964;2023-12-20T09:31:56;100188.69;;;7.62;68.76
29215;BME280;16252;49.816;7.964;2023-12-20T09:34:23;100279.69;;;8.13;68.59
29215;BME280;16252;49.816;7.964;2023-12-20T09:36:48;100215.13;;;7.79;68.69
29215;BME280;16252;49.816;7.964;2023-12-20T09:39:14;100273.41;;;8.14;68.73
29215;BME280;16252;49.816;7.964;2023-12-20T09:41:43;100214.47;;;7.76;68.77
29215;BME280;16252;49.816;7.964;2023-12-20T09:44:14;100231.13;;;7.94;68.56
29215;BME280;16252;49.816;7.964;2023-12-20T09:46:43;100207.53;;;7.73;68.57
29215;BME280;16252;49.816;7.964;2023-12-20T09:49:08;100160.06;;;7.51;68.63
29215;BME280;16252;49.816;7.964;2023-12-20T09:51:34;100200.03;;;7.80;68.85
29215;BME280;16252;49.816;7.964;2023-12-20T09:54:00;100254.38;;;8.20;68.98
29215;BME280;16252;49.816;7.964;2023-12-20T09:56:27;100222.00;;;8.12;68.86
29215;BME280;16252;49.816;7.964;2023-12-20T09:58:54;100227.59;;;8.22;68.86
29215;BME280;16252;49.816;7.964;2023-12-20T10:01:19;100266.53;;;8.53;68.55
29215;BME280;16252;49.816;7.964;2023-12-20T10:03:46;100197.06;;;8.13;68.65
29215;BME280;16252;49.816;7.964;2023-12-20T10:06:11;100110.31;;;7.66;68.53
29215;BME280;16252;49.816;7.964;2023-12-20T10:08:36;100255.78;;;8.55;68.51
29215;BME280;16252;49.816;7.964;2023-12-20T10:11:02;100214.84;;;8.27;68.24
29215;BME280;16252;49.816;7.964;2023-12-20T10:13:29;100131.22;;;7.87;68.23
29215;BME280;16252;49.816;7.964;2023-12-20T10:15:55;100155.28;;;8.14;68.13
29215;BME280;16252;49.816;7.964;2023-12-20T10:18:20;100184.19;;;8.34;68.13
29215;BME280;16252;49.816;7.964;2023-12-20T10:20:46;100280.13;;;8.92;68.12
29215;BME280;16252;49.816;7.964;2023-12-20T10:23:12;100226.50;;;8.67;67.88
29215;BME280;16252;49.816;7.964;2023-12-20T10:25:39;100173.81;;;8.44;67.90
29215;BME280;16252;49.816;7.964;2023-12-20T10:28:15;100259.44;;;9.08;67.61
29215;BME280;16252;49.816;7.964;2023-12-20T10:30:45;100203.63;;;8.78;67.85
29215;BME280;16252;49.816;7.964;2023-12-20T10:33:10;100145.81;;;8.51;67.86
29215;BME280;16252;49.816;7.964;2023-12-20T10:35:36;100213.53;;;9.03;67.70
29215;BME280;16252;49.816;7.964;2023-12-20T10:38:05;100186.03;;;8.88;67.46
29215;BME280;16252;49.816;7.964;2023-12-20T10:40:34;100170.69;;;8.92;67.17
29215;BME280;16252;49.816;7.964;2023-12-20T10:43:00;100162.88;;;8.88;67.40
29215;BME280;16252;49.816;7.964;2023-12-20T10:45:27;100155.63;;;8.90;67.62
29215;BME280;16252;49.816;7.964;2023-12-20T10:47:52;100152.03;;;8.92;67.36
29215;BME280;16252;49.816;7.964;2023-12-20T10:50:19;100162.50;;;9.07;66.90
29215;BME280;16252;49.816;7.964;2023-12-20T10:52:46;100189.56;;;9.28;66.87
29215;BME280;16252;49.816;7.964;2023-12-20T10:55:12;100179.72;;;9.29;66.86
29215;BME280;16252;49.816;7.964;2023-12-20T10:57:38;100094.25;;;8.90;66.76
29215;BME280;16252;49.816;7.964;2023-12-20T11:00:06;100117.47;;;9.16;66.13
29215;BME280;16252;49.816;7.964;2023-12-20T11:02:39;100148.88;;;9.38;66.01
29215;BME280;16252;49.816;7.964;2023-12-20T11:07:52;100095.34;;;9.14;65.65
29215;BME280;16252;49.816;7.964;2023-12-20T11:10:26;100217.81;;;9.84;65.53
29215;BME280;16252;49.816;7.964;2023-12-20T11:13:00;100118.75;;;9.36;65.79
29215;BME280;16252;49.816;7.964;2023-12-20T11:15:31;100176.22;;;9.67;65.68
29215;BME280;16252;49.816;7.964;2023-12-20T11:17:58;100103.28;;;9.28;65.17
29215;BME280;16252;49.816;7.964;2023-12-20T11:20:24;100120.47;;;9.37;65.20
29215;BME280;16252;49.816;7.964;2023-12-20T11:23:00;100173.91;;;9.75;65.54
29215;BME280;16252;49.816;7.964;2023-12-20T11:25:26;100119.19;;;9.42;65.13
29215;BME280;16252;49.816;7.964;2023-12-20T11:28:09;100186.72;;;9.83;64.84
29215;BME280;16252;49.816;7.964;2023-12-20T11:30:49;100153.38;;;9.63;64.60
29215;BME280;16252;49.816;7.964;2023-12-20T11:33:15;100159.13;;;9.57;64.92
29215;BME280;16252;49.816;7.964;2023-12-20T11:35:42;100160.09;;;9.55;65.00
29215;BME280;16252;49.816;7.964;2023-12-20T11:38:09;100178.38;;;9.62;64.86
29215;BME280;16252;49.816;7.964;2023-12-20T11:40:35;100124.84;;;9.38;64.49
29215;BME280;16252;49.816;7.964;2023-12-20T11:43:01;100123.03;;;9.38;64.78
29215;BME280;16252;49.816;7.964;2023-12-20T11:45:26;100102.28;;;9.29;64.70
29215;BME280;16252;49.816;7.964;2023-12-20T11:47:52;100112.03;;;9.30;64.91
29215;BME280;16252;49.816;7.964;2023-12-20T11:50:22;100206.38;;;9.94;64.34
29215;BME280;16252;49.816;7.964;2023-12-20T11:52:48;100205.44;;;9.95;64.21
29215;BME280;16252;49.816;7.964;2023-12-20T11:55:14;100134.56;;;9.51;64.14
29215;BME280;16252;49.816;7.964;2023-12-20T11:57:40;100169.63;;;9.72;63.96
29215;BME280;16252;49.816;7.964;2023-12-20T12:00:06;100200.28;;;9.92;63.83
29215;BME280;16252;49.816;7.964;2023-12-20T12:02:31;100179.97;;;9.77;64.16
29215;BME280;16252;49.816;7.964;2023-12-20T12:04:57;100115.13;;;9.37;63.80
29215;BME280;16252;49.816;7.964;2023-12-20T12:07:24;100095.03;;;9.18;63.83
29215;BME280;16252;49.816;7.964;2023-12-20T12:09:49;100078.59;;;9.11;63.82
29215;BME280;16252;49.816;7.964;2023-12-20T12:12:15;100163.09;;;9.64;64.06
29215;BME280;16252;49.816;7.964;2023-12-20T12:14:40;100089.16;;;9.26;64.10
29215;BME280;16252;49.816;7.964;2023-12-20T12:17:13;100185.97;;;9.93;63.65
29215;BME280;16252;49.816;7.964;2023-12-20T12:19:39;100194.94;;;9.92;64.18
29215;BME280;16252;49.816;7.964;2023-12-20T12:22:08;100193.84;;;9.95;64.09
29215;BME280;16252;49.816;7.964;2023-12-20T12:24:41;100089.81;;;9.42;64.13
29215;BME280;16252;49.816;7.964;2023-12-20T12:27:07;100128.47;;;9.75;63.81
29215;BME280;16252;49.816;7.964;2023-12-20T12:29:36;100080.94;;;9.54;63.50
29215;BME280;16252;49.816;7.964;2023-12-20T12:32:06;100122.16;;;9.76;63.14
29215;BME280;16252;49.816;7.964;2023-12-20T12:34:35;100107.66;;;9.54;63.74
29215;BME280;16252;49.816;7.964;2023-12-20T12:37:01;100136.91;;;9.82;63.49
29215;BME280;16252;49.816;7.964;2023-12-20T12:39:27;100068.00;;;9.48;63.67
29215;BME280;16252;49.816;7.964;2023-12-20T12:41:55;100107.94;;;9.75;63.89
29215;BME280;16252;49.816;7.964;2023-12-20T12:44:20;100084.69;;;9.65;63.87
29215;BME280;16252;49.816;7.964;2023-12-20T12:46:48;100098.09;;;9.76;63.44
29215;BME280;16252;49.816;7.964;2023-12-20T12:49:16;100110.59;;;9.88;63.77
29215;BME280;16252;49.816;7.964;2023-12-20T12:51:42;100085.59;;;9.76;63.43
29215;BME280;16252;49.816;7.964;2023-12-20T12:54:08;100067.44;;;9.69;63.41
29215;BME280;16252;49.816;7.964;2023-12-20T12:56:34;100083.44;;;9.82;63.03
29215;BME280;16252;49.816;7.964;2023-12-20T12:58:59;100004.78;;;9.36;62.92
29215;BME280;16252;49.816;7.964;2023-12-20T13:01:24;100051.88;;;9.63;62.84